McNary Field
KSLE : now visible

Airfield :











YOU CAN JOIN US ON...

 
LOGIN :

Register | Disclaimer

   EN    FR    IT 

 









Legend :    VFR   Marginal VFR   IFR   Intensive IFR   Very Intensive IFR
Visi :
Ceiling :
>= 8 km
>= 3000ft
5 to 8 km
1000 to 3000 ft
1500m to 5 km
500 to 1000 ft
800 to 1500m
200 to 500 ft
< 800m
< 200 ft
Symbols :   Thunderstorms  Fog  Heavy snow  Heavy precipitations  Wind > 20 kt







- Airport Elevation : 214 ft


KSLE - McNary Field

CURRENT METAR :
  • 220156Z 00000KT 10SM CLR 20/12 A3002 RMK AO2 SLP164 T02000122

EXPIRED METARs :
  • 220056Z 01006KT 10SM CLR 21/12 A3003 RMK AO2 SLP169 T02060122
  • 212356Z VRB05KT 10SM SCT034 21/12 A3004 RMK AO2 SLP173 T02110122 10222 20178 56016

TAF KSLE
Valid from the 22 at 00:00 until the 23 at 00:00 UTC


212328Z 2200/2224 35007KT P6SM FEW035
FM221400 18006KT 6SM -DZ OVC050
FM221500 18007KT 4SM -RA BR OVC050
FM221800 18008KT 4SM -RA BR OVC025
No reported NOTAMs for that airfield.



MET'MAP, your aeronautical weather chart ! - Copyright ORBIFLY December 2007 - Disclaimer

ORBIFLY MET'MAP TEAM :

Programming & Development : Alexandra Zaïnal
Concept & Development : Baudouin d'Aumeries
Co-Development & Prog : Marc-Olivier Méhu
Technical & hardware support : Manuel Goepfert

Contact : metmap@orbifly.com




SOURCES & CREDITS :

   NOAA       Earth
Advisory